Time;durP1;ratioP1;P1;durP2;ratioP2;P2;SDS_P1;SDS_P2;PMS_P1;PMS_P2;Temp;Humidity;BMP_temperature;BMP_pressure;BME280_temperature;BME280_humidity;BME280_pressure;Samples;Min_cycle;Max_cycle;Signal;HPM_P1;HPM_P2
2022/08/04 00:00:14;;;;;;;8.25;4.00;;;17.30;1.00;;;;;;5067876;28;20460;-77
2022/08/04 00:03:03;;;;;;;9.73;4.05;;;17.30;1.00;;;;;;5065122;28;20029;-76
2022/08/04 00:05:41;;;;;;;6.07;4.45;;;17.30;1.00;;;;;;5054978;28;20072;-76
2022/08/04 00:08:33;;;;;;;9.52;4.20;;;17.30;1.00;;;;;;5063648;28;20033;-76
2022/08/04 00:11:00;;;;;;;10.23;4.43;;;17.30;1.00;;;;;;5064903;28;20029;-76
2022/08/04 00:13:29;;;;;;;7.90;4.22;;;17.30;1.00;;;;;;5061156;28;20021;-76
2022/08/04 00:16:00;;;;;;;10.27;4.30;;;17.30;1.00;;;;;;5049594;28;20026;-76
2022/08/04 00:18:33;;;;;;;8.15;4.00;;;17.40;1.00;;;;;;5055224;28;20037;-76
2022/08/04 00:21:03;;;;;;;8.57;3.88;;;17.20;1.00;;;;;;5064679;28;20033;-76
2022/08/04 00:23:31;;;;;;;6.97;4.28;;;17.30;1.00;;;;;;5054892;28;20051;-76
2022/08/04 00:25:57;;;;;;;5.78;3.60;;;17.20;12.70;;;;;;5062866;28;20033;-76
2022/08/04 00:28:24;;;;;;;7.93;4.00;;;17.20;5.20;;;;;;5068791;28;20158;-76
2022/08/04 00:30:50;;;;;;;8.85;4.15;;;17.20;29.40;;;;;;5068820;28;20029;-76
2022/08/04 00:33:19;;;;;;;13.43;4.20;;;17.20;34.60;;;;;;5061481;28;20025;-76
2022/08/04 00:35:47;;;;;;;10.27;4.35;;;17.10;1.00;;;;;;5053198;28;20052;-76
2022/08/04 00:38:17;;;;;;;7.50;4.22;;;17.10;1.00;;;;;;5061920;28;20021;-76
2022/08/04 00:40:55;;;;;;;7.20;3.70;;;17.10;31.90;;;;;;5058649;28;20034;-77
2022/08/04 00:43:31;;;;;;;7.25;4.50;;;17.20;15.50;;;;;;5065128;28;20311;-78
2022/08/04 00:46:25;;;;;;;8.90;4.50;;;17.10;22.20;;;;;;5073081;28;20091;-77
2022/08/04 00:49:39;;;;;;;6.60;4.15;;;17.10;35.10;;;;;;5070262;28;20079;-77
2022/08/04 00:52:31;;;;;;;7.25;3.90;;;17.10;38.80;;;;;;5048310;28;20045;-76
2022/08/04 00:55:27;;;;;;;10.30;4.53;;;17.10;35.70;;;;;;5069855;28;20025;-77
2022/08/04 00:58:40;;;;;;;7.68;4.75;;;17.10;52.90;;;;;;5072996;28;20021;-76
2022/08/04 01:01:13;;;;;;;11.13;4.57;;;17.10;62.90;;;;;;5040588;28;20061;-76
2022/08/04 01:03:41;;;;;;;10.75;4.65;;;17.20;74.40;;;;;;5048498;28;20047;-76
2022/08/04 01:06:36;;;;;;;6.82;4.00;;;17.20;1.00;;;;;;5059562;28;20045;-76
2022/08/04 01:09:40;;;;;;;9.85;4.45;;;17.10;5.70;;;;;;5068244;28;20021;-76
2022/08/04 01:12:23;;;;;;;11.20;4.68;;;17.10;1.00;;;;;;5066855;28;20017;-77
2022/08/04 01:15:24;;;;;;;9.52;4.40;;;17.10;1.00;;;;;;5053901;28;20025;-76
2022/08/04 01:18:04;;;;;;;10.98;4.13;;;17.10;1.00;;;;;;5066196;28;20037;-77
2022/08/04 01:20:40;;;;;;;7.82;4.68;;;17.10;1.00;;;;;;5055281;28;20048;-76
2022/08/04 01:23:50;;;;;;;13.10;4.82;;;17.30;1.00;;;;;;5057298;28;20057;-76
2022/08/04 01:26:42;;;;;;;11.07;4.28;;;17.20;29.40;;;;;;5041941;28;20045;-77
2022/08/04 01:29:12;;;;;;;8.57;4.68;;;17.20;23.60;;;;;;5068715;28;20025;-76
2022/08/04 01:32:02;;;;;;;7.50;4.80;;;17.10;9.30;;;;;;5063784;28;20030;-76
2022/08/04 01:34:49;;;;;;;8.63;4.85;;;17.10;19.90;;;;;;5054983;28;20058;-75
2022/08/04 01:37:25;;;;;;;7.97;4.47;;;17.20;66.50;;;;;;5058984;28;20048;-77
2022/08/04 01:40:01;;;;;;;10.63;4.72;;;17.10;25.70;;;;;;5070003;28;20033;-77
2022/08/04 01:42:31;;;;;;;10.40;4.75;;;17.10;1.00;;;;;;5063183;28;20113;-77
2022/08/04 01:44:59;;;;;;;9.57;4.47;;;17.20;25.30;;;;;;5059297;28;20110;-76
2022/08/04 01:47:28;;;;;;;12.30;4.97;;;17.20;1.00;;;;;;5062219;28;20052;-77
2022/08/04 01:50:00;;;;;;;7.00;3.87;;;17.10;60.50;;;;;;5068100;28;20292;-76
2022/08/04 01:52:27;;;;;;;11.00;4.50;;;17.10;1.00;;;;;;5060571;28;20757;-77
2022/08/04 01:54:54;;;;;;;9.32;4.50;;;17.10;20.60;;;;;;5055823;28;20060;-77
2022/08/04 01:57:22;;;;;;;10.35;5.03;;;17.10;27.30;;;;;;5058166;28;20049;-77
2022/08/04 01:59:51;;;;;;;8.45;4.13;;;17.10;22.60;;;;;;5057025;28;20036;-77
2022/08/04 02:02:17;;;;;;;13.00;4.72;;;17.10;37.60;;;;;;5068993;28;20040;-76
2022/08/04 02:04:43;;;;;;;8.60;4.88;;;17.10;18.90;;;;;;5061446;28;20037;-77
2022/08/04 02:07:27;;;;;;;11.25;5.00;;;17.20;78.70;;;;;;5062070;28;20052;-76
2022/08/04 02:10:03;;;;;;;10.05;5.05;;;17.10;88.20;;;;;;5064857;28;20010;-77
2022/08/04 02:12:54;;;;;;;11.57;4.88;;;17.00;1.60;;;;;;5067636;28;20063;-77
2022/08/04 02:15:39;;;;;;;10.20;5.18;;;17.10;99.90;;;;;;5069710;28;20080;-77
2022/08/04 02:18:34;;;;;;;14.15;5.85;;;17.10;59.40;;;;;;5065489;28;20157;-76
2022/08/04 02:21:01;;;;;;;9.95;4.63;;;17.10;53.40;;;;;;5053322;28;20041;-76
2022/08/04 02:23:35;;;;;;;9.10;5.35;;;17.20;31.30;;;;;;5069613;28;20024;-76
2022/08/04 02:26:03;;;;;;;10.32;5.15;;;17.10;34.30;;;;;;5072170;28;20090;-76
2022/08/04 02:28:37;;;;;;;10.45;5.55;;;17.00;51.70;;;;;;5073230;28;20033;-76
2022/08/04 02:31:32;;;;;;;12.15;5.82;;;17.10;59.50;;;;;;5065490;28;20025;-77
2022/08/04 02:34:07;;;;;;;14.45;5.30;;;17.10;44.00;;;;;;5063426;28;20017;-76
2022/08/04 02:36:41;;;;;;;10.95;5.68;;;17.20;99.90;;;;;;5060629;28;20033;-76
2022/08/04 02:39:10;;;;;;;11.80;5.70;;;17.20;96.90;;;;;;5075261;28;20033;-77
2022/08/04 02:41:38;;;;;;;9.48;5.60;;;17.20;53.80;;;;;;5066910;28;20374;-76
2022/08/04 02:44:09;;;;;;;13.70;5.93;;;17.10;4.70;;;;;;5074481;28;20021;-77
2022/08/04 02:46:36;;;;;;;7.20;5.10;;;17.20;71.30;;;;;;5062860;28;20120;-76
2022/08/04 02:49:05;;;;;;;7.95;4.85;;;17.30;1.00;;;;;;5068654;28;20081;-76
2022/08/04 02:51:36;;;;;;;9.00;5.25;;;17.20;1.00;;;;;;5065441;28;20496;-77
2022/08/04 02:54:04;;;;;;;9.73;5.60;;;17.20;1.00;;;;;;5067818;28;20025;-76
2022/08/04 02:56:33;;;;;;;12.52;5.78;;;17.30;48.20;;;;;;5068544;28;20054;-77
2022/08/04 02:59:06;;;;;;;12.25;4.70;;;17.30;14.00;;;;;;5063842;28;20013;-76
2022/08/04 03:01:32;;;;;;;11.25;5.57;;;17.20;1.00;;;;;;5074919;28;20029;-76
2022/08/04 03:04:19;;;;;;;13.73;5.45;;;17.30;49.70;;;;;;5073765;28;20021;-76
2022/08/04 03:07:06;;;;;;;8.65;5.45;;;17.20;1.00;;;;;;5061254;28;20310;-76
2022/08/04 03:09:44;;;;;;;12.35;5.65;;;17.30;99.90;;;;;;5063702;28;20025;-76
2022/08/04 03:12:29;;;;;;;14.13;5.82;;;17.30;16.20;;;;;;5067855;28;20041;-76
2022/08/04 03:15:33;;;;;;;9.43;5.03;;;17.40;99.90;;;;;;5068008;28;20029;-76
2022/08/04 03:18:30;;;;;;;9.27;5.40;;;17.30;96.30;;;;;;5064839;28;20041;-75
2022/08/04 03:21:11;;;;;;;8.27;4.68;;;17.30;85.40;;;;;;5063170;28;20033;-76
2022/08/04 03:23:58;;;;;;;13.43;5.85;;;17.40;88.70;;;;;;5061281;28;20038;-76
2022/08/04 03:26:33;;;;;;;11.50;5.63;;;17.40;21.10;;;;;;5071317;28;20113;-76
2022/08/04 03:29:20;;;;;;;9.50;5.13;;;17.40;69.70;;;;;;5065743;28;20040;-76
2022/08/04 03:31:51;;;;;;;11.40;5.75;;;17.40;73.20;;;;;;5060696;28;20048;-76
2022/08/04 03:34:42;;;;;;;11.25;5.45;;;17.40;78.90;;;;;;5058278;28;20029;-76
2022/08/04 03:37:46;;;;;;;8.13;5.50;;;17.40;68.10;;;;;;5060317;28;20028;-76
2022/08/04 03:40:33;;;;;;;9.93;5.43;;;17.40;99.90;;;;;;5055684;28;20021;-76
2022/08/04 03:43:27;;;;;;;11.38;5.78;;;17.30;8.10;;;;;;5067336;28;20053;-76
2022/08/04 03:46:32;;;;;;;13.88;5.32;;;17.40;68.60;;;;;;5066091;28;20029;-77
2022/08/04 03:49:48;;;;;;;9.75;4.95;;;17.30;7.60;;;;;;5069189;28;20029;-77
2022/08/04 03:53:07;;;;;;;12.20;5.78;;;17.40;38.10;;;;;;5062024;28;20037;-76
2022/08/04 03:55:39;;;;;;;11.32;4.63;;;17.30;13.00;;;;;;5062503;28;20087;-76
2022/08/04 03:58:27;;;;;;;13.63;5.78;;;17.40;80.20;;;;;;5075381;28;20070;-76
2022/08/04 04:01:26;;;;;;;10.50;5.80;;;17.70;99.90;;;;;;5065527;28;20074;-76
2022/08/04 04:04:16;;;;;;;12.75;5.00;;;17.50;24.80;;;;;;5068748;28;20052;-76
2022/08/04 04:07:03;;;;;;;9.70;4.78;;;17.50;43.40;;;;;;5070006;28;20029;-77
2022/08/04 04:09:54;;;;;;;12.07;4.38;;;17.40;12.00;;;;;;5071644;28;20009;-76
2022/08/04 04:12:40;;;;;;;9.60;4.55;;;17.50;40.50;;;;;;5062845;28;20067;-77
2022/08/04 04:15:19;;;;;;;10.98;5.80;;;17.50;1.00;;;;;;5070004;28;20044;-76
2022/08/04 04:18:00;;;;;;;11.68;5.03;;;17.60;99.90;;;;;;5069176;28;20023;-77
2022/08/04 04:21:16;;;;;;;9.48;4.28;;;17.70;20.00;;;;;;5065258;28;20086;-76
2022/08/04 04:24:01;;;;;;;13.15;6.15;;;17.80;5.40;;;;;;5051520;28;20105;-77
2022/08/04 04:26:47;;;;;;;9.43;5.18;;;18.00;99.90;;;;;;5068128;28;20045;-77
2022/08/04 04:29:55;;;;;;;8.15;5.25;;;18.10;64.60;;;;;;5070479;28;20096;-76
2022/08/04 04:32:22;;;;;;;12.13;5.93;;;18.10;1.00;;;;;;5056563;28;20021;-76
2022/08/04 04:34:57;;;;;;;12.38;5.93;;;18.10;1.00;;;;;;5066631;28;20111;-76
2022/08/04 04:37:55;;;;;;;10.30;5.65;;;18.10;41.80;;;;;;5065113;28;20017;-78
2022/08/04 04:40:45;;;;;;;7.32;3.72;;;18.40;90.40;;;;;;5069299;28;20012;-78
2022/08/04 04:43:37;;;;;;;6.07;3.60;;;18.60;1.00;;;;;;5070671;28;20017;-78
2022/08/04 04:46:11;;;;;;;5.97;3.80;;;18.80;1.00;;;;;;5076126;28;20021;-78
2022/08/04 04:49:15;;;;;;;6.88;3.97;;;19.10;1.00;;;;;;5071256;28;20027;-77
2022/08/04 04:51:59;;;;;;;8.35;4.38;;;19.20;1.00;;;;;;5066226;28;20033;-77
2022/08/04 04:54:33;;;;;;;8.18;4.72;;;19.40;1.00;;;;;;5066664;28;20028;-78
2022/08/04 04:57:10;;;;;;;14.88;6.32;;;19.50;1.00;;;;;;5063691;28;20009;-78
2022/08/04 04:59:38;;;;;;;11.98;5.13;;;19.50;1.00;;;;;;5064845;28;20028;-78
2022/08/04 05:02:34;;;;;;;11.30;4.90;;;19.90;1.00;;;;;;5065328;28;20053;-78
2022/08/04 05:05:38;;;;;;;7.80;4.80;;;20.20;1.00;;;;;;5061647;28;20030;-78
2022/08/04 05:08:30;;;;;;;9.07;4.35;;;20.40;99.90;;;;;;5052842;28;20069;-78
2022/08/04 05:10:58;;;;;;;7.68;4.10;;;20.60;99.90;;;;;;5066728;28;20014;-77
2022/08/04 05:13:36;;;;;;;9.30;4.70;;;20.60;99.90;;;;;;5065475;28;20068;-79
2022/08/04 05:16:11;;;;;;;7.05;4.65;;;20.60;99.90;;;;;;5063067;28;20025;-79
2022/08/04 05:18:40;;;;;;;10.55;4.82;;;20.70;99.90;;;;;;5065104;28;20107;-79
2022/08/04 05:21:31;;;;;;;10.27;4.97;;;20.70;99.90;;;;;;5072326;28;20025;-79
2022/08/04 05:24:03;;;;;;;7.75;5.35;;;20.80;99.90;;;;;;5044325;28;20053;-76
2022/08/04 05:26:34;;;;;;;10.27;5.80;;;20.70;99.90;;;;;;5053571;28;20025;-76
2022/08/04 05:29:06;;;;;;;15.00;5.70;;;20.50;99.90;;;;;;5041395;28;20032;-77
2022/08/04 05:31:43;;;;;;;12.48;6.28;;;20.50;99.90;;;;;;5033899;28;20029;-76
2022/08/04 05:34:18;;;;;;;12.32;6.35;;;20.50;99.90;;;;;;5042660;28;20112;-77
2022/08/04 05:36:55;;;;;;;10.45;5.85;;;20.50;99.90;;;;;;5051083;28;20021;-77
2022/08/04 05:39:27;;;;;;;12.00;6.00;;;20.70;99.90;;;;;;5054341;28;20028;-76
2022/08/04 05:41:55;;;;;;;11.02;6.05;;;20.90;99.90;;;;;;5054000;28;20032;-76
2022/08/04 05:44:22;;;;;;;12.27;6.05;;;21.60;99.90;;;;;;5053651;28;20021;-76
2022/08/04 05:46:51;;;;;;;11.45;5.10;;;21.90;99.90;;;;;;5053809;28;20504;-76
2022/08/04 05:49:18;;;;;;;7.13;5.80;;;21.70;99.90;;;;;;5053944;28;20103;-76
2022/08/04 05:51:45;;;;;;;12.73;5.63;;;21.90;99.90;;;;;;5054647;28;20120;-76
2022/08/04 05:54:13;;;;;;;10.65;5.43;;;22.20;99.90;;;;;;5054732;28;20453;-76
2022/08/04 05:56:39;;;;;;;10.13;5.88;;;22.30;99.90;;;;;;5054677;28;20062;-77
2022/08/04 05:59:05;;;;;;;11.60;5.53;;;22.70;99.90;;;;;;5048650;28;20058;-77
2022/08/04 06:01:32;;;;;;;11.13;6.07;;;22.70;99.90;;;;;;5059375;28;20021;-77
2022/08/04 06:04:00;;;;;;;13.35;5.93;;;22.60;99.90;;;;;;5066908;28;20051;-77
2022/08/04 06:06:26;;;;;;;10.40;5.78;;;22.50;99.90;;;;;;5052404;28;20034;-77
2022/08/04 06:08:53;;;;;;;10.07;5.43;;;22.50;99.90;;;;;;5040239;28;20030;-77
2022/08/04 06:11:21;;;;;;;10.45;5.95;;;23.10;99.90;;;;;;5050488;28;20469;-77
2022/08/04 06:13:53;;;;;;;10.38;6.13;;;23.30;99.90;;;;;;5042512;28;20020;-77
2022/08/04 06:16:23;;;;;;;10.98;5.80;;;23.50;99.90;;;;;;5056550;28;20025;-77
2022/08/04 06:18:52;;;;;;;9.90;5.55;;;23.40;99.90;;;;;;5039821;28;20033;-77
2022/08/04 06:21:23;;;;;;;13.40;6.10;;;23.60;99.90;;;;;;5049492;28;20031;-77
2022/08/04 06:23:51;;;;;;;7.25;5.22;;;23.80;99.90;;;;;;5058722;28;20028;-77
2022/08/04 06:26:18;;;;;;;8.73;5.50;;;24.50;99.90;;;;;;5042067;28;20053;-77
2022/08/04 06:28:49;;;;;;;8.77;5.60;;;24.60;99.90;;;;;;5058652;28;20032;-77
2022/08/04 06:31:30;;;;;;;6.72;5.30;;;24.70;99.90;;;;;;5049228;28;20029;-77
2022/08/04 06:34:00;;;;;;;11.10;5.63;;;24.70;99.90;;;;;;5051078;28;20020;-77
2022/08/04 06:36:26;;;;;;;9.88;5.80;;;24.50;99.90;;;;;;5056838;28;20081;-77
2022/08/04 06:38:53;;;;;;;6.70;4.72;;;24.30;99.90;;;;;;5057634;28;20036;-77
2022/08/04 06:41:20;;;;;;;10.98;5.57;;;24.40;99.90;;;;;;5057295;28;20090;-77
2022/08/04 06:43:46;;;;;;;7.93;4.97;;;24.30;99.90;;;;;;5047908;28;20039;-77
2022/08/04 06:46:12;;;;;;;9.10;5.68;;;24.00;99.90;;;;;;5057531;28;20356;-77
2022/08/04 06:48:38;;;;;;;9.65;5.15;;;23.90;99.90;;;;;;5055462;28;20028;-77
2022/08/04 06:51:05;;;;;;;10.18;5.20;;;24.00;99.90;;;;;;5048138;28;20099;-77
2022/08/04 06:53:30;;;;;;;6.28;4.30;;;24.50;99.90;;;;;;5058009;28;20033;-76
2022/08/04 06:55:58;;;;;;;8.90;4.70;;;25.10;99.90;;;;;;5058806;28;20029;-77
2022/08/04 06:58:26;;;;;;;6.28;4.32;;;26.70;99.90;;;;;;5039108;28;20086;-77
2022/08/04 07:00:54;;;;;;;8.32;4.63;;;30.80;99.90;;;;;;5055755;28;20020;-78
2022/08/04 07:03:20;;;;;;;8.88;4.57;;;32.10;99.90;;;;;;5057099;28;20577;-77
2022/08/04 07:05:47;;;;;;;9.55;4.25;;;32.80;99.90;;;;;;5056601;28;20021;-77
2022/08/04 07:08:14;;;;;;;8.27;3.88;;;33.60;99.90;;;;;;5056038;28;20029;-76
2022/08/04 07:10:40;;;;;;;9.55;3.60;;;33.00;99.90;;;;;;5056793;28;20061;-78
2022/08/04 07:13:06;;;;;;;9.02;3.63;;;31.30;99.90;;;;;;5048747;28;20057;-78
2022/08/04 07:15:32;;;;;;;7.13;3.45;;;32.90;99.90;;;;;;5052666;28;20086;-78
2022/08/04 07:18:00;;;;;;;7.32;3.42;;;33.10;99.90;;;;;;5055743;28;20017;-78
2022/08/04 07:20:28;;;;;;;7.50;3.55;;;32.80;99.90;;;;;;5045840;28;20022;-78
2022/08/04 07:22:55;;;;;;;7.22;3.30;;;32.60;99.90;;;;;;5037000;28;20365;-79
2022/08/04 07:25:20;;;;;;;6.13;2.90;;;32.60;99.90;;;;;;5038492;28;20068;-78
2022/08/04 07:27:46;;;;;;;7.28;2.95;;;32.60;99.90;;;;;;5045061;28;20039;-78
2022/08/04 07:30:13;;;;;;;5.97;2.67;;;34.40;99.90;;;;;;5037314;28;20017;-79
2022/08/04 07:32:40;;;;;;;5.15;2.92;;;36.00;99.90;;;;;;5052102;28;20029;-79
2022/08/04 07:35:07;;;;;;;4.68;2.50;;;35.70;99.90;;;;;;5055052;28;20053;-79
2022/08/04 07:37:33;;;;;;;5.53;2.40;;;36.40;99.90;;;;;;5062195;28;20499;-79
2022/08/04 07:40:00;;;;;;;4.72;2.33;;;36.60;99.90;;;;;;5049750;28;20025;-79
2022/08/04 07:42:26;;;;;;;3.92;1.75;;;36.70;99.90;;;;;;5055251;28;20477;-79
2022/08/04 07:44:51;;;;;;;4.57;2.13;;;36.90;99.90;;;;;;5063239;28;20485;-79
2022/08/04 07:47:17;;;;;;;6.82;1.70;;;36.40;99.90;;;;;;5064579;28;20104;-79
2022/08/04 07:49:43;;;;;;;5.18;2.00;;;36.50;99.90;;;;;;5069845;28;20457;-80
2022/08/04 07:52:09;;;;;;;5.70;1.50;;;36.30;98.70;;;;;;5047574;28;20042;-80
2022/08/04 07:54:35;;;;;;;3.10;1.60;;;35.70;98.10;;;;;;5058228;28;20061;-85
2022/08/04 07:57:01;;;;;;;4.00;1.50;;;36.40;96.30;;;;;;5055247;28;20032;-80
2022/08/04 07:59:27;;;;;;;3.67;1.30;;;36.30;93.10;;;;;;5053478;28;20055;-79
2022/08/04 08:01:57;;;;;;;4.47;1.30;;;35.00;93.60;;;;;;5051116;28;20034;-79
2022/08/04 08:04:22;;;;;;;2.40;1.40;;;35.50;91.70;;;;;;5060603;28;20059;-79
2022/08/04 08:06:49;;;;;;;5.15;1.45;;;35.40;91.10;;;;;;5064256;28;20065;-80
2022/08/04 08:09:17;;;;;;;1.98;1.27;;;36.00;90.80;;;;;;5045958;28;20447;-80
2022/08/04 08:11:48;;;;;;;2.03;1.58;;;35.30;88.90;;;;;;5047407;28;20037;-80
2022/08/04 08:14:15;;;;;;;3.13;1.27;;;34.80;87.40;;;;;;5048925;28;20397;-80
2022/08/04 08:16:41;;;;;;;2.97;1.60;;;34.80;86.60;;;;;;5059978;28;20029;-80
2022/08/04 08:19:07;;;;;;;4.07;1.15;;;35.00;86.10;;;;;;5055164;28;20045;-80
2022/08/04 08:21:34;;;;;;;3.25;1.33;;;34.80;87.80;;;;;;5050568;28;20006;-80
2022/08/04 08:23:59;;;;;;;1.30;1.08;;;34.60;90.10;;;;;;5053567;28;20030;-80
2022/08/04 08:26:26;;;;;;;3.08;1.25;;;34.60;89.40;;;;;;5065599;28;20067;-80
2022/08/04 08:28:52;;;;;;;3.67;1.10;;;34.30;86.80;;;;;;5060446;28;20140;-80
2022/08/04 08:31:18;;;;;;;2.05;0.98;;;34.50;89.20;;;;;;5058248;28;20032;-79
2022/08/04 08:33:46;;;;;;;1.90;1.10;;;35.30;87.30;;;;;;5056109;28;20053;-79
2022/08/04 08:36:36;;;;;;;4.30;1.38;;;35.00;87.60;;;;;;5052456;28;20053;-79
2022/08/04 08:39:04;;;;;;;2.03;0.98;;;34.40;85.90;;;;;;5058759;28;20033;-78
2022/08/04 08:41:55;;;;;;;3.10;1.25;;;33.90;88.00;;;;;;5053883;28;20017;-78
2022/08/04 08:44:29;;;;;;;1.45;1.15;;;34.20;87.00;;;;;;5050388;28;20120;-79
2022/08/04 08:47:18;;;;;;;3.10;1.13;;;34.80;89.80;;;;;;5061614;28;20068;-79
2022/08/04 08:49:59;;;;;;;4.93;1.15;;;34.00;90.10;;;;;;5056279;28;20033;-79
2022/08/04 08:52:43;;;;;;;1.05;0.70;;;33.80;88.30;;;;;;5052497;28;20071;-78
2022/08/04 08:55:30;;;;;;;1.27;0.90;;;33.70;86.90;;;;;;5052377;28;20040;-81
2022/08/04 08:58:17;;;;;;;2.72;0.98;;;34.20;85.90;;;;;;5044319;28;20025;-81
2022/08/04 09:00:54;;;;;;;1.77;0.85;;;34.20;81.40;;;;;;5034726;28;20053;-82
2022/08/04 09:03:45;;;;;;;2.85;1.10;;;34.60;80.40;;;;;;5035868;28;20065;-82
2022/08/04 09:06:48;;;;;;;3.45;1.13;;;34.50;78.10;;;;;;5036271;28;20061;-81
2022/08/04 09:09:50;;;;;;;3.70;1.33;;;34.10;77.40;;;;;;5054436;28;20033;-82
2022/08/04 09:12:38;;;;;;;2.35;1.33;;;34.00;80.80;;;;;;5054974;28;20109;-80
2022/08/04 09:15:14;;;;;;;2.65;1.60;;;34.40;78.70;;;;;;5055387;28;20036;-81
2022/08/04 09:17:54;;;;;;;3.50;1.30;;;34.10;76.90;;;;;;5037402;28;20453;-81
2022/08/04 09:20:57;;;;;;;3.17;1.50;;;34.60;75.30;;;;;;5044383;28;20074;-81
2022/08/04 09:23:47;;;;;;;4.97;1.50;;;35.20;71.30;;;;;;5044695;28;20087;-81
2022/08/04 09:26:33;;;;;;;3.17;1.52;;;37.20;68.20;;;;;;5054458;28;20083;-80
2022/08/04 09:29:04;;;;;;;3.05;1.40;;;39.50;59.90;;;;;;5034904;28;20039;-80
2022/08/04 09:31:34;;;;;;;3.55;1.50;;;41.50;51.50;;;;;;5034927;28;20350;-85
2022/08/04 09:34:10;;;;;;;5.78;1.30;;;41.60;41.40;;;;;;5038484;28;20021;-84
2022/08/04 09:37:11;;;;;;;3.53;1.60;;;43.20;35.10;;;;;;5043179;28;20047;-83
2022/08/04 09:40:03;;;;;;;4.88;1.50;;;42.50;27.90;;;;;;5019752;28;20034;-83
2022/08/04 09:43:14;;;;;;;2.40;1.60;;;43.30;22.30;;;;;;5034601;28;20029;-82
2022/08/04 09:45:44;;;;;;;2.50;1.35;;;43.90;18.80;;;;;;5019118;28;20172;-82
2022/08/04 09:48:16;;;;;;;3.60;1.38;;;43.50;16.00;;;;;;5036628;28;20044;-82
2022/08/04 09:50:44;;;;;;;3.55;1.35;;;43.30;12.80;;;;;;5051219;28;20439;-84
2022/08/04 09:53:34;;;;;;;3.27;1.17;;;43.50;11.00;;;;;;5054508;28;20017;-83
2022/08/04 09:56:03;;;;;;;1.58;1.20;;;43.70;8.60;;;;;;5034128;28;20025;-82
2022/08/04 09:58:53;;;;;;;3.30;1.20;;;44.60;7.80;;;;;;5035001;28;20064;-83
2022/08/04 10:01:23;;;;;;;2.80;1.40;;;44.40;5.80;;;;;;5035119;28;20030;-83
2022/08/04 10:03:55;;;;;;;2.40;1.35;;;43.80;4.40;;;;;;5039064;28;20028;-83
2022/08/04 10:06:35;;;;;;;4.18;1.67;;;43.70;3.80;;;;;;5057089;28;20044;-83
2022/08/04 10:09:24;;;;;;;2.40;1.23;;;43.70;2.10;;;;;;5054005;28;20902;-83
2022/08/04 10:11:56;;;;;;;2.90;1.58;;;41.90;4.60;;;;;;5042726;28;20026;-82
2022/08/04 10:15:07;;;;;;;2.78;1.40;;;43.50;4.10;;;;;;5034765;28;20041;-82
2022/08/04 10:17:53;;;;;;;2.15;1.20;;;42.60;2.70;;;;;;5046457;28;20055;-82
2022/08/04 10:20:39;;;;;;;2.10;1.30;;;42.60;3.40;;;;;;5041668;28;20096;-83
2022/08/04 10:23:32;;;;;;;1.80;1.15;;;38.20;1.90;;;;;;5050224;28;20025;-83
2022/08/04 10:26:09;;;;;;;2.00;1.50;;;39.70;5.80;;;;;;5052056;28;20028;-83
2022/08/04 10:29:05;;;;;;;3.05;1.52;;;38.90;4.70;;;;;;5057335;28;20044;-83
2022/08/04 10:31:42;;;;;;;3.25;1.33;;;35.80;6.00;;;;;;5045268;28;20040;-82
2022/08/04 10:34:23;;;;;;;2.85;1.20;;;34.70;9.80;;;;;;5053077;28;20021;-81
2022/08/04 10:37:01;;;;;;;1.98;1.20;;;37.00;13.10;;;;;;5060464;28;20146;-81
2022/08/04 10:42:48;;;;;;;2.70;1.38;;;37.20;11.30;;;;;;5050332;28;20036;-81
2022/08/04 10:45:21;;;;;;;2.30;1.40;;;38.10;11.30;;;;;;5055514;28;20365;-81
2022/08/04 10:48:06;;;;;;;2.35;1.25;;;35.30;12.40;;;;;;5049648;28;20093;-81
2022/08/04 10:50:36;;;;;;;2.80;1.10;;;34.80;16.50;;;;;;5063515;28;20021;-81
2022/08/04 10:53:12;;;;;;;3.90;1.25;;;34.90;19.00;;;;;;5067192;28;20021;-81
2022/08/04 10:55:45;;;;;;;3.50;1.30;;;36.90;20.40;;;;;;5061822;28;20040;-81
2022/08/04 10:58:17;;;;;;;4.22;1.25;;;37.50;21.40;;;;;;5065991;28;20032;-81
2022/08/04 11:00:44;;;;;;;2.08;1.30;;;38.10;22.00;;;;;;5074963;28;20020;-80
2022/08/04 11:03:22;;;;;;;4.43;1.20;;;37.40;22.10;;;;;;5061135;28;20073;-81
2022/08/04 11:05:53;;;;;;;3.85;1.20;;;35.90;22.20;;;;;;5069895;28;20033;-81
2022/08/04 11:08:31;;;;;;;5.60;1.58;;;35.20;23.80;;;;;;5066976;28;20040;-81
2022/08/04 11:11:03;;;;;;;3.72;1.17;;;34.60;26.50;;;;;;5067325;28;20021;-81
2022/08/04 11:13:37;;;;;;;3.53;1.20;;;34.00;22.40;;;;;;5071720;28;20021;-81
2022/08/04 11:16:08;;;;;;;5.45;1.35;;;33.30;21.40;;;;;;5063351;28;20029;-81
2022/08/04 11:18:46;;;;;;;3.78;1.40;;;32.90;21.80;;;;;;5061302;28;20033;-81
2022/08/04 11:21:19;;;;;;;3.85;1.27;;;32.70;24.90;;;;;;5077665;28;20013;-81
2022/08/04 11:23:54;;;;;;;3.88;1.30;;;32.90;23.40;;;;;;5067475;28;20017;-82
2022/08/04 11:26:48;;;;;;;3.13;1.40;;;32.80;24.70;;;;;;5069406;28;20025;-81
2022/08/04 11:29:44;;;;;;;2.78;1.10;;;32.00;26.20;;;;;;5061294;28;20037;-81
2022/08/04 11:32:28;;;;;;;5.25;1.40;;;32.50;28.20;;;;;;5061585;28;20036;-82
2022/08/04 11:34:59;;;;;;;2.42;1.23;;;32.60;30.50;;;;;;5080654;28;20092;-81
2022/08/04 11:37:52;;;;;;;3.20;1.30;;;32.40;32.00;;;;;;5077316;28;20036;-81
2022/08/04 11:40:34;;;;;;;5.50;1.27;;;31.70;33.50;;;;;;5076512;28;20073;-81
2022/08/04 11:43:12;;;;;;;2.88;1.30;;;31.70;38.20;;;;;;5067830;28;20072;-81
2022/08/04 11:45:48;;;;;;;2.95;1.17;;;31.30;41.30;;;;;;5068929;28;20023;-81
2022/08/04 11:48:21;;;;;;;4.28;1.70;;;31.80;46.00;;;;;;5060603;28;20024;-81
2022/08/04 11:50:51;;;;;;;4.60;1.58;;;31.60;47.00;;;;;;5079131;28;20013;-81
2022/08/04 11:53:21;;;;;;;6.88;1.45;;;31.60;49.70;;;;;;5069857;28;20021;-81
2022/08/04 11:55:51;;;;;;;4.07;1.60;;;32.20;51.20;;;;;;5075652;28;20006;-81
2022/08/04 11:58:17;;;;;;;3.13;1.83;;;32.10;49.40;;;;;;5069211;28;20033;-81
2022/08/04 12:01:14;;;;;;;5.38;1.50;;;32.50;52.90;;;;;;5064849;28;20030;-80
2022/08/04 12:03:58;;;;;;;2.90;1.15;;;32.30;52.50;;;;;;5079629;28;20028;-81
2022/08/04 12:06:27;;;;;;;5.30;1.30;;;32.10;50.50;;;;;;5063432;28;20088;-81
2022/08/04 12:09:06;;;;;;;3.05;1.30;;;31.90;45.40;;;;;;5078361;28;20025;-81
2022/08/04 12:11:50;;;;;;;2.80;1.23;;;32.70;45.20;;;;;;5070536;28;20040;-81
2022/08/04 12:14:27;;;;;;;2.50;1.25;;;32.50;41.90;;;;;;5070734;28;20036;-81
2022/08/04 12:17:00;;;;;;;3.22;1.30;;;32.50;40.00;;;;;;5066951;28;20038;-81
2022/08/04 12:19:31;;;;;;;5.35;1.42;;;32.30;43.90;;;;;;5064944;28;20048;-81
2022/08/04 12:22:02;;;;;;;5.05;1.30;;;32.50;45.50;;;;;;5055494;28;20033;-82
2022/08/04 12:24:37;;;;;;;3.97;1.48;;;32.10;41.10;;;;;;5071804;28;20062;-83
2022/08/04 12:27:28;;;;;;;3.38;1.63;;;32.00;44.30;;;;;;5063850;28;20064;-83
2022/08/04 12:29:54;;;;;;;4.20;1.80;;;32.10;43.20;;;;;;5062681;28;20021;-82
2022/08/04 12:32:39;;;;;;;4.07;1.45;;;32.40;45.30;;;;;;5070906;28;20025;-82
2022/08/04 12:35:20;;;;;;;5.45;1.88;;;32.50;44.70;;;;;;5061254;28;20038;-82
2022/08/04 12:38:06;;;;;;;5.45;1.95;;;33.20;48.30;;;;;;5067645;28;20013;-82
2022/08/04 12:40:52;;;;;;;7.63;1.98;;;32.80;51.60;;;;;;5074475;28;20055;-82
2022/08/04 12:43:44;;;;;;;5.88;1.60;;;31.90;54.80;;;;;;5066159;28;20017;-82
2022/08/04 12:46:18;;;;;;;2.47;1.55;;;31.70;52.40;;;;;;5066380;28;20472;-81
2022/08/04 12:48:46;;;;;;;4.35;1.52;;;31.70;54.10;;;;;;5050796;28;20034;-81
2022/08/04 12:51:13;;;;;;;6.75;2.13;;;32.00;54.10;;;;;;5059112;28;20029;-82
2022/08/04 12:53:41;;;;;;;4.15;2.17;;;31.90;53.20;;;;;;5059322;28;20049;-82
2022/08/04 12:56:15;;;;;;;8.10;2.07;;;31.50;55.00;;;;;;5064828;28;20029;-82
2022/08/04 12:58:43;;;;;;;5.55;1.77;;;30.90;55.00;;;;;;5058893;28;20329;-83
2022/08/04 13:01:21;;;;;;;5.68;2.03;;;30.40;57.60;;;;;;5070057;28;20097;-81
2022/08/04 13:03:54;;;;;;;6.53;1.58;;;30.50;61.50;;;;;;5065313;28;20006;-82
2022/08/04 13:06:25;;;;;;;4.30;1.80;;;31.00;60.60;;;;;;5059945;28;20046;-83
2022/08/04 13:08:53;;;;;;;4.45;1.55;;;30.90;60.70;;;;;;5068579;28;20005;-82
2022/08/04 13:11:20;;;;;;;3.08;1.60;;;31.40;58.00;;;;;;5068285;28;20023;-82
2022/08/04 13:13:52;;;;;;;6.90;2.03;;;31.80;56.70;;;;;;5065116;28;20014;-82
2022/08/04 13:16:17;;;;;;;2.92;1.88;;;31.60;55.60;;;;;;5073167;28;20016;-82
2022/08/04 13:18:48;;;;;;;4.80;2.10;;;31.10;56.50;;;;;;5064961;28;20010;-81
2022/08/04 13:21:20;;;;;;;5.30;1.98;;;30.30;58.90;;;;;;5065440;28;20041;-80
2022/08/04 13:23:46;;;;;;;3.83;1.60;;;30.00;62.60;;;;;;5065222;28;20012;-81
2022/08/04 13:26:17;;;;;;;7.28;2.47;;;30.40;65.30;;;;;;5063875;28;20048;-81
2022/08/04 13:28:45;;;;;;;5.05;1.85;;;30.30;64.60;;;;;;5058574;28;20092;-82
2022/08/04 13:31:16;;;;;;;5.32;2.20;;;30.30;60.50;;;;;;5078507;28;20025;-82
2022/08/04 13:33:44;;;;;;;5.10;1.90;;;30.40;61.00;;;;;;5066543;28;20045;-81
2022/08/04 13:36:11;;;;;;;4.78;2.10;;;30.00;61.60;;;;;;5058765;28;20049;-81
2022/08/04 13:38:43;;;;;;;5.28;1.70;;;29.70;64.60;;;;;;5063467;28;20013;-79